createdAt,value
2023-01-19T00:01:14.296Z,99569.84
2023-01-19T00:03:46.603Z,99568.58
2023-01-19T00:06:17.531Z,99572.20
2023-01-19T00:08:50.583Z,99577.45
2023-01-19T00:11:19.217Z,99584.13
2023-01-19T00:13:51.364Z,99582.66
2023-01-19T00:16:23.764Z,99583.27
2023-01-19T00:18:51.484Z,99592.86
2023-01-19T00:21:24.367Z,99596.61
2023-01-19T00:23:54.479Z,99596.89
2023-01-19T00:26:23.187Z,99600.34
2023-01-19T00:28:57.901Z,99611.09
2023-01-19T00:31:30.535Z,99609.81
2023-01-19T00:34:01.975Z,99612.02
2023-01-19T00:36:30.601Z,99619.33
2023-01-19T00:38:58.660Z,99620.42
2023-01-19T00:41:48.836Z,99618.98
2023-01-19T00:44:18.262Z,99620.35
2023-01-19T00:46:47.725Z,99626.03
2023-01-19T00:49:17.234Z,99633.32
2023-01-19T00:51:45.507Z,99633.49
2023-01-19T00:54:20.835Z,99633.21
2023-01-19T00:56:55.045Z,99627.25
2023-01-19T00:59:29.568Z,99630.43
2023-01-19T01:02:00.406Z,99631.39
2023-01-19T01:04:27.612Z,99634.52
2023-01-19T01:07:00.544Z,99632.73
2023-01-19T01:09:32.606Z,99640.09
2023-01-19T01:12:03.768Z,99640.55
2023-01-19T01:14:34.976Z,99637.92
2023-01-19T01:17:02.079Z,99636.57
2023-01-19T01:19:31.949Z,99638.19
2023-01-19T01:22:01.617Z,99639.82
2023-01-19T01:24:31.993Z,99633.59
2023-01-19T01:26:59.192Z,99635.09
2023-01-19T01:29:30.462Z,99633.17
2023-01-19T01:32:01.408Z,99635.88
2023-01-19T01:34:32.371Z,99638.28
2023-01-19T01:37:02.815Z,99637.40
2023-01-19T01:39:30.938Z,99645.76
2023-01-19T01:41:58.498Z,99647.55
2023-01-19T01:44:49.277Z,99646.52
2023-01-19T01:47:50.130Z,99646.08
2023-01-19T01:50:21.733Z,99641.70
2023-01-19T01:53:15.466Z,99643.42
2023-01-19T01:55:47.561Z,99639.98
2023-01-19T01:58:42.277Z,99640.31
2023-01-19T02:01:33.178Z,99641.52
2023-01-19T02:04:02.387Z,99643.98
2023-01-19T02:06:29.979Z,99649.80
2023-01-19T02:09:24.861Z,99658.05
2023-01-19T02:12:13.135Z,99660.95
2023-01-19T02:14:44.660Z,99660.65
2023-01-19T02:17:13.478Z,99656.02
2023-01-19T02:19:42.280Z,99662.98
2023-01-19T02:22:21.075Z,99662.73
2023-01-19T02:24:49.445Z,99661.02
2023-01-19T02:27:18.989Z,99656.11
2023-01-19T02:29:50.694Z,99659.02
2023-01-19T02:32:19.013Z,99657.15
2023-01-19T02:34:47.559Z,99653.98
2023-01-19T02:37:14.850Z,99653.70
2023-01-19T02:39:51.049Z,99654.84
2023-01-19T02:42:27.548Z,99657.94
2023-01-19T02:44:56.202Z,99650.41
2023-01-19T02:47:24.844Z,99641.89
2023-01-19T02:49:56.664Z,99634.05
2023-01-19T02:52:27.188Z,99633.27
2023-01-19T02:55:17.692Z,99636.70
2023-01-19T02:57:57.846Z,99637.11
2023-01-19T03:00:33.912Z,99647.29
2023-01-19T03:03:20.197Z,99650.81
2023-01-19T03:06:09.251Z,99653.39
2023-01-19T03:08:41.912Z,99657.41
2023-01-19T03:11:11.678Z,99661.89
2023-01-19T03:13:55.762Z,99657.85
2023-01-19T03:16:45.164Z,99664.88
2023-01-19T03:19:33.783Z,99666.16
2023-01-19T03:22:09.377Z,99664.55
2023-01-19T03:24:41.758Z,99663.02
2023-01-19T03:27:35.106Z,99666.97
2023-01-19T03:30:07.349Z,99671.00
2023-01-19T03:32:43.284Z,99674.29
2023-01-19T03:35:15.359Z,99671.98
2023-01-19T03:37:46.149Z,99669.44
2023-01-19T03:40:16.933Z,99660.56
2023-01-19T03:42:48.842Z,99654.58
2023-01-19T03:45:21.166Z,99651.65
2023-01-19T03:47:51.140Z,99662.49
2023-01-19T03:50:26.765Z,99676.16
2023-01-19T03:53:32.629Z,99680.89
2023-01-19T03:56:03.225Z,99677.92
2023-01-19T03:58:33.703Z,99673.98
2023-01-19T04:01:05.095Z,99670.54
2023-01-19T04:03:34.749Z,99664.67
2023-01-19T04:06:34.244Z,99667.98
2023-01-19T04:09:10.614Z,99667.80
2023-01-19T04:11:38.027Z,99668.21
2023-01-19T04:14:08.247Z,99665.02
2023-01-19T04:16:39.509Z,99663.14
2023-01-19T04:19:29.796Z,99659.85
2023-01-19T04:22:02.287Z,99661.70
2023-01-19T04:24:31.210Z,99659.48
2023-01-19T04:27:02.297Z,99662.60
2023-01-19T04:29:33.192Z,99664.48
2023-01-19T04:32:06.793Z,99659.41
2023-01-19T04:34:50.237Z,99656.17
2023-01-19T04:37:22.694Z,99654.23
2023-01-19T04:39:55.735Z,99654.25
2023-01-19T04:42:27.104Z,99648.61
2023-01-19T04:45:00.365Z,99650.70
2023-01-19T04:47:31.460Z,99653.88
2023-01-19T04:50:01.221Z,99651.42
2023-01-19T04:52:56.113Z,99654.48
2023-01-19T04:55:26.171Z,99656.10
2023-01-19T04:57:57.738Z,99651.60
2023-01-19T05:00:29.513Z,99651.38
2023-01-19T05:02:57.440Z,99656.65
2023-01-19T05:05:26.841Z,99653.85
2023-01-19T05:07:56.637Z,99660.92
2023-01-19T05:10:27.677Z,99655.73
2023-01-19T05:13:00.699Z,99651.76
2023-01-19T05:15:35.406Z,99649.21
2023-01-19T05:18:07.212Z,99642.33
2023-01-19T05:20:45.093Z,99645.77
2023-01-19T05:23:13.272Z,99654.23
2023-01-19T05:25:43.932Z,99657.48
2023-01-19T05:28:14.674Z,99654.34
2023-01-19T05:30:47.878Z,99655.83
2023-01-19T05:33:48.717Z,99656.40
2023-01-19T05:36:21.471Z,99661.07
2023-01-19T05:38:51.304Z,99658.16
2023-01-19T05:41:20.479Z,99663.67
2023-01-19T05:43:54.384Z,99672.73
2023-01-19T05:46:24.429Z,99669.84
2023-01-19T05:49:01.185Z,99669.54
2023-01-19T05:51:37.448Z,99669.90
2023-01-19T05:54:08.104Z,99666.42
2023-01-19T05:56:39.137Z,99667.73
2023-01-19T05:59:10.893Z,99669.00
2023-01-19T06:01:46.573Z,99664.48
2023-01-19T06:04:19.059Z,99659.47
2023-01-19T06:06:49.662Z,99658.59
2023-01-19T06:09:20.928Z,99656.30
2023-01-19T06:11:49.248Z,99648.02
2023-01-19T06:14:23.116Z,99647.89
2023-01-19T06:16:52.383Z,99656.73
2023-01-19T06:19:23.051Z,99649.79
2023-01-19T06:21:52.558Z,99649.23
2023-01-19T06:24:24.632Z,99649.55
2023-01-19T06:26:59.907Z,99654.25
2023-01-19T06:29:31.086Z,99658.77
2023-01-19T06:32:00.677Z,99658.77
2023-01-19T06:34:29.245Z,99658.91
2023-01-19T06:36:59.628Z,99653.31
2023-01-19T06:39:31.716Z,99655.15
2023-01-19T06:42:05.373Z,99657.92
2023-01-19T06:44:58.977Z,99659.19
2023-01-19T06:47:33.876Z,99655.30
2023-01-19T06:50:03.095Z,99669.50
2023-01-19T06:52:42.090Z,99666.02
2023-01-19T06:55:10.712Z,99670.29
2023-01-19T06:57:39.918Z,99670.77
2023-01-19T07:00:11.295Z,99667.28
2023-01-19T07:02:46.393Z,99661.04
2023-01-19T07:05:16.717Z,99665.98
2023-01-19T07:07:45.924Z,99673.52
2023-01-19T07:10:16.413Z,99669.70
2023-01-19T07:12:50.671Z,99664.07
2023-01-19T07:15:22.483Z,99671.13
2023-01-19T07:17:58.368Z,99670.16
2023-01-19T07:20:37.469Z,99663.15
2023-01-19T07:23:05.363Z,99661.48
2023-01-19T07:25:38.960Z,99665.30
2023-01-19T07:28:22.758Z,99664.03
2023-01-19T07:31:06.209Z,99660.15
2023-01-19T07:33:34.664Z,99660.05
2023-01-19T07:36:04.637Z,99664.64
2023-01-19T07:38:59.688Z,99663.61
2023-01-19T07:41:39.208Z,99659.83
2023-01-19T07:44:10.534Z,99652.31
2023-01-19T07:46:43.474Z,99653.50
2023-01-19T07:49:14.867Z,99650.89
2023-01-19T07:51:46.552Z,99649.61
2023-01-19T07:54:16.063Z,99647.58
2023-01-19T07:56:44.231Z,99646.42
2023-01-19T07:59:15.720Z,99641.49
2023-01-19T08:01:52.548Z,99641.33
2023-01-19T08:04:21.823Z,99637.27
2023-01-19T08:06:54.694Z,99635.02
2023-01-19T08:09:31.769Z,99629.06
2023-01-19T08:12:01.704Z,99629.30
2023-01-19T08:14:30.942Z,99626.74
2023-01-19T08:17:01.941Z,99623.62
2023-01-19T08:19:30.828Z,99620.14
2023-01-19T08:22:02.188Z,99623.41
2023-01-19T08:24:31.884Z,99633.84
2023-01-19T08:27:02.034Z,99636.83
2023-01-19T08:29:31.344Z,99639.00
2023-01-19T08:32:03.922Z,99641.25
2023-01-19T08:34:40.363Z,99641.48
2023-01-19T08:37:07.485Z,99645.43
2023-01-19T08:39:40.753Z,99648.29
2023-01-19T08:42:12.159Z,99647.55
2023-01-19T08:44:57.247Z,99653.98
2023-01-19T08:47:26.041Z,99658.45
2023-01-19T08:49:55.566Z,99662.10
2023-01-19T08:52:29.279Z,99664.16
2023-01-19T08:54:59.643Z,99665.60
2023-01-19T08:57:29.306Z,99660.98
2023-01-19T08:59:58.840Z,99662.82
2023-01-19T09:02:26.345Z,99662.29
2023-01-19T09:04:57.248Z,99661.11
2023-01-19T09:07:28.703Z,99664.70
2023-01-19T09:10:01.041Z,99655.90
2023-01-19T09:12:49.816Z,99656.48
2023-01-19T09:15:18.557Z,99657.73
2023-01-19T09:17:51.092Z,99659.04
2023-01-19T09:20:28.018Z,99656.55
2023-01-19T09:22:57.516Z,99658.81
2023-01-19T09:25:26.178Z,99664.91
2023-01-19T09:27:55.801Z,99666.60
2023-01-19T09:30:24.559Z,99664.98
2023-01-19T09:32:55.501Z,99671.73
2023-01-19T09:35:24.462Z,99676.94
2023-01-19T09:37:56.779Z,99682.02
2023-01-19T09:40:32.339Z,99675.75
2023-01-19T09:43:23.115Z,99676.13
2023-01-19T09:45:59.130Z,99672.48
2023-01-19T09:48:45.330Z,99671.56
2023-01-19T09:51:36.639Z,99665.72
2023-01-19T09:56:10.603Z,99660.08
2023-01-19T09:58:41.342Z,99656.11
2023-01-19T10:01:57.896Z,99657.72
2023-01-19T10:04:55.959Z,99663.42
2023-01-19T10:07:44.986Z,99660.48
2023-01-19T10:10:33.894Z,99661.20
2023-01-19T10:13:46.926Z,99655.24
2023-01-19T10:16:43.847Z,99648.41
2023-01-19T10:19:30.695Z,99643.86
2023-01-19T10:22:21.663Z,99645.52
2023-01-19T10:24:55.632Z,99639.54
2023-01-19T10:27:31.323Z,99625.36
2023-01-19T10:30:02.237Z,99623.59
2023-01-19T10:32:35.241Z,99623.11
2023-01-19T10:35:21.675Z,99626.16
2023-01-19T10:38:11.692Z,99625.01
2023-01-19T10:41:15.606Z,99624.72
2023-01-19T10:43:46.865Z,99613.52
2023-01-19T10:46:43.269Z,99605.15
2023-01-19T10:49:43.530Z,99602.17
2023-01-19T10:52:55.153Z,99592.92
2023-01-19T10:56:12.276Z,99584.27
2023-01-19T10:58:46.299Z,99587.83
2023-01-19T11:01:22.223Z,99597.71
2023-01-19T11:03:52.759Z,99597.24
2023-01-19T11:06:24.538Z,99582.64
2023-01-19T11:09:15.715Z,99580.83
2023-01-19T11:11:45.691Z,99570.33
2023-01-19T11:14:27.120Z,99569.80
2023-01-19T11:17:01.239Z,99578.11
2023-01-19T11:19:32.654Z,99571.41
2023-01-19T11:22:26.352Z,99573.59
2023-01-19T11:24:59.347Z,99576.29
2023-01-19T11:27:32.043Z,99575.95
2023-01-19T11:30:22.018Z,99572.72
2023-01-19T11:32:50.734Z,99569.30
2023-01-19T11:35:41.117Z,99565.33
2023-01-19T11:38:22.154Z,99563.34
2023-01-19T11:41:14.496Z,99559.44
2023-01-19T11:43:49.474Z,99561.57
2023-01-19T11:46:50.846Z,99560.63
2023-01-19T11:49:34.663Z,99561.04
2023-01-19T11:52:19.014Z,99556.67
2023-01-19T11:55:00.205Z,99553.75
2023-01-19T11:57:28.995Z,99555.91
2023-01-19T12:00:05.614Z,99554.79
2023-01-19T12:02:44.264Z,99557.61
2023-01-19T12:05:21.763Z,99563.67
2023-01-19T12:07:54.081Z,99560.39
2023-01-19T12:10:34.824Z,99547.76
2023-01-19T12:13:03.674Z,99545.02
2023-01-19T12:15:44.052Z,99544.64
2023-01-19T12:18:43.561Z,99552.69
2023-01-19T12:21:14.146Z,99556.48
2023-01-19T12:23:48.061Z,99549.10
2023-01-19T12:26:49.367Z,99544.50
2023-01-19T12:29:19.601Z,99554.16
2023-01-19T12:32:33.179Z,99547.98
2023-01-19T12:35:06.900Z,99544.95
2023-01-19T12:37:38.474Z,99548.91
2023-01-19T12:40:23.055Z,99549.38
2023-01-19T12:42:57.111Z,99545.43
2023-01-19T12:45:31.642Z,99546.13
2023-01-19T12:48:02.036Z,99553.77
2023-01-19T12:50:37.223Z,99550.04
2023-01-19T12:53:07.816Z,99542.92
2023-01-19T12:55:46.146Z,99540.66
2023-01-19T12:58:22.107Z,99541.16
2023-01-19T13:01:13.016Z,99538.23
2023-01-19T13:04:09.313Z,99542.66
2023-01-19T13:07:08.285Z,99544.09
2023-01-19T13:09:58.239Z,99549.43
2023-01-19T13:12:29.333Z,99548.98
2023-01-19T13:15:35.411Z,99554.51
2023-01-19T13:18:10.297Z,99555.66
2023-01-19T13:20:53.060Z,99556.32
2023-01-19T13:23:22.201Z,99560.99
2023-01-19T13:25:59.427Z,99563.86
2023-01-19T13:28:39.589Z,99564.33
2023-01-19T13:31:11.032Z,99565.30
2023-01-19T13:33:57.978Z,99563.62
2023-01-19T13:36:36.541Z,99561.40
2023-01-19T13:39:18.573Z,99559.13
2023-01-19T13:41:49.269Z,99559.91
2023-01-19T13:44:30.529Z,99558.98
2023-01-19T13:47:26.972Z,99555.84
2023-01-19T13:49:57.776Z,99555.72
2023-01-19T13:52:29.130Z,99543.28
2023-01-19T13:55:05.174Z,99542.47
2023-01-19T13:57:39.938Z,99541.14
2023-01-19T14:00:18.240Z,99545.10
2023-01-19T14:03:08.041Z,99541.06
2023-01-19T14:05:38.804Z,99539.83
2023-01-19T14:08:18.545Z,99547.31
2023-01-19T14:11:03.279Z,99543.55
2023-01-19T14:13:36.814Z,99545.85
2023-01-19T14:16:27.709Z,99549.80
2023-01-19T14:19:05.148Z,99547.33
2023-01-19T14:21:45.642Z,99550.99
2023-01-19T14:24:17.541Z,99548.21
2023-01-19T14:26:59.260Z,99553.87
2023-01-19T14:29:31.751Z,99554.18
2023-01-19T14:32:14.449Z,99552.21
2023-01-19T14:35:04.409Z,99554.14
2023-01-19T14:37:49.711Z,99562.20
2023-01-19T14:40:21.529Z,99560.33
2023-01-19T14:42:56.877Z,99554.21
2023-01-19T14:45:36.325Z,99554.03
2023-01-19T14:48:49.532Z,99553.30
2023-01-19T14:51:21.263Z,99555.83
2023-01-19T14:53:54.498Z,99555.21
2023-01-19T14:56:30.387Z,99558.02
2023-01-19T14:59:01.160Z,99555.09
2023-01-19T15:01:30.533Z,99556.48
2023-01-19T15:04:01.550Z,99554.65
2023-01-19T15:06:33.560Z,99552.79
2023-01-19T15:09:04.954Z,99559.85
2023-01-19T15:11:36.695Z,99557.19
2023-01-19T15:14:24.662Z,99563.73
2023-01-19T15:16:53.319Z,99557.71
2023-01-19T15:19:21.195Z,99559.02
2023-01-19T15:21:50.178Z,99559.42
2023-01-19T15:24:19.176Z,99562.82
2023-01-19T15:26:51.393Z,99558.69
2023-01-19T15:29:21.491Z,99556.23
2023-01-19T15:31:54.753Z,99552.96
2023-01-19T15:34:29.383Z,99553.40
2023-01-19T15:37:02.774Z,99550.46
2023-01-19T15:39:33.085Z,99556.89
2023-01-19T15:42:07.485Z,99554.63
2023-01-19T15:44:37.097Z,99564.91
2023-01-19T15:47:06.433Z,99566.27
2023-01-19T15:49:35.987Z,99569.14
2023-01-19T15:52:04.839Z,99577.33
2023-01-19T15:54:37.082Z,99573.29
2023-01-19T15:57:12.063Z,99575.40
2023-01-19T15:59:39.798Z,99573.23
2023-01-19T16:02:11.562Z,99578.27
2023-01-19T16:04:41.764Z,99580.50
2023-01-19T16:07:11.098Z,99577.36
2023-01-19T16:09:39.340Z,99590.33
2023-01-19T16:12:06.641Z,99590.37
2023-01-19T16:14:38.497Z,99592.15
2023-01-19T16:17:11.702Z,99591.20
2023-01-19T16:19:43.847Z,99590.85
2023-01-19T16:22:13.338Z,99591.09
2023-01-19T16:24:43.631Z,99593.17
2023-01-19T16:27:13.723Z,99596.73
2023-01-19T16:29:43.060Z,99598.84
2023-01-19T16:32:12.731Z,99597.01
2023-01-19T16:34:40.339Z,99601.36
2023-01-19T16:37:11.743Z,99593.86
2023-01-19T16:39:42.606Z,99596.26
2023-01-19T16:42:16.092Z,99599.10
2023-01-19T16:44:46.192Z,99591.95
2023-01-19T16:47:25.463Z,99595.67
2023-01-19T16:49:53.590Z,99595.47
2023-01-19T16:52:24.058Z,99595.77
2023-01-19T16:54:55.333Z,99598.33
2023-01-19T16:57:26.780Z,99598.04
2023-01-19T16:59:56.521Z,99599.48
2023-01-19T17:02:25.883Z,99601.90
2023-01-19T17:05:00.371Z,99606.29
2023-01-19T17:07:30.709Z,99606.15
2023-01-19T17:10:01.779Z,99607.45
2023-01-19T17:12:33.604Z,99610.65
2023-01-19T17:15:03.043Z,99610.23
2023-01-19T17:17:36.531Z,99616.20
2023-01-19T17:20:06.544Z,99611.93
2023-01-19T17:22:35.727Z,99614.08
2023-01-19T17:25:05.557Z,99616.06
2023-01-19T17:27:36.387Z,99625.66
2023-01-19T17:30:10.315Z,99619.73
2023-01-19T17:32:50.618Z,99623.26
2023-01-19T17:35:18.880Z,99631.19
2023-01-19T17:37:47.956Z,99633.27
2023-01-19T17:40:26.340Z,99633.84
2023-01-19T17:42:59.785Z,99632.70
2023-01-19T17:45:56.950Z,99637.03
2023-01-19T17:48:53.882Z,99639.23
2023-01-19T17:51:23.238Z,99639.69
2023-01-19T17:53:53.047Z,99628.73
2023-01-19T17:56:28.099Z,99628.14
2023-01-19T17:58:57.076Z,99632.80
2023-01-19T18:01:27.900Z,99633.98
2023-01-19T18:03:55.437Z,99634.73
2023-01-19T18:06:24.260Z,99633.38
2023-01-19T18:08:53.889Z,99623.79
2023-01-19T18:11:24.304Z,99624.20
2023-01-19T18:13:59.085Z,99621.19
2023-01-19T18:16:28.748Z,99627.41
2023-01-19T18:18:58.545Z,99625.77
2023-01-19T18:21:30.066Z,99635.71
2023-01-19T18:24:01.864Z,99638.60
2023-01-19T18:26:35.500Z,99634.70
2023-01-19T18:29:05.202Z,99636.02
2023-01-19T18:31:33.722Z,99635.18
2023-01-19T18:34:05.632Z,99629.63
2023-01-19T18:37:04.361Z,99637.95
2023-01-19T18:39:50.841Z,99637.67
2023-01-19T18:42:20.616Z,99623.23
2023-01-19T18:44:51.464Z,99626.06
2023-01-19T18:47:21.708Z,99625.34
2023-01-19T18:49:56.052Z,99625.86
2023-01-19T18:52:23.933Z,99631.63
2023-01-19T18:55:01.384Z,99632.93
2023-01-19T18:57:34.190Z,99634.66
2023-01-19T19:00:08.197Z,99630.88
2023-01-19T19:02:37.955Z,99635.56
2023-01-19T19:05:09.778Z,99639.58
2023-01-19T19:07:46.824Z,99648.73
2023-01-19T19:10:17.981Z,99651.85
2023-01-19T19:13:14.520Z,99652.44
2023-01-19T19:15:50.848Z,99649.86
2023-01-19T19:18:22.676Z,99652.42
2023-01-19T19:20:50.476Z,99646.73
2023-01-19T19:23:25.969Z,99641.52
2023-01-19T19:25:53.852Z,99644.63
2023-01-19T19:28:21.349Z,99647.23
2023-01-19T19:30:52.287Z,99640.31
2023-01-19T19:33:23.902Z,99641.85
2023-01-19T19:35:56.463Z,99657.98
2023-01-19T19:38:26.407Z,99659.69
2023-01-19T19:41:06.529Z,99668.67
2023-01-19T19:43:36.126Z,99671.81
2023-01-19T19:46:06.899Z,99671.39
2023-01-19T19:48:39.103Z,99676.88
2023-01-19T19:51:18.759Z,99689.36
2023-01-19T19:54:17.970Z,99688.38
2023-01-19T19:56:51.535Z,99688.70
2023-01-19T19:59:20.372Z,99691.27
2023-01-19T20:01:49.853Z,99692.55
2023-01-19T20:04:23.103Z,99694.48
2023-01-19T20:06:53.662Z,99700.52
2023-01-19T20:09:25.717Z,99692.45
2023-01-19T20:11:54.519Z,99700.48
2023-01-19T20:14:23.755Z,99701.23
2023-01-19T20:16:56.757Z,99700.32
2023-01-19T20:19:27.362Z,99699.23
2023-01-19T20:21:57.809Z,99706.09
2023-01-19T20:24:28.011Z,99711.22
2023-01-19T20:27:03.512Z,99709.73
2023-01-19T20:29:33.426Z,99720.50
2023-01-19T20:32:02.205Z,99715.02
2023-01-19T20:34:37.680Z,99706.41
2023-01-19T20:37:15.973Z,99704.48
2023-01-19T20:39:45.666Z,99710.48
2023-01-19T20:43:00.814Z,99705.94
2023-01-19T20:45:33.536Z,99707.17
2023-01-19T20:48:27.138Z,99712.04
2023-01-19T20:51:02.557Z,99708.21
2023-01-19T20:53:36.031Z,99706.08
2023-01-19T20:56:07.107Z,99708.71
2023-01-19T20:58:37.213Z,99710.05
2023-01-19T21:01:21.169Z,99706.79
2023-01-19T21:03:51.059Z,99714.36
2023-01-19T21:06:19.157Z,99710.89
2023-01-19T21:09:14.007Z,99717.99
2023-01-19T21:11:47.106Z,99705.27
2023-01-19T21:14:27.435Z,99709.11
2023-01-19T21:16:58.571Z,99716.11
2023-01-19T21:19:30.010Z,99726.69
2023-01-19T21:21:58.898Z,99726.59
2023-01-19T21:24:35.090Z,99726.29
2023-01-19T21:27:07.348Z,99727.04
2023-01-19T21:29:36.185Z,99725.45
2023-01-19T21:32:07.794Z,99718.52
2023-01-19T21:35:04.737Z,99720.54
2023-01-19T21:38:03.167Z,99720.44
2023-01-19T21:40:37.262Z,99724.85
2023-01-19T21:43:12.767Z,99720.52
2023-01-19T21:45:46.009Z,99729.79
2023-01-19T21:48:22.699Z,99724.10
2023-01-19T21:50:58.387Z,99729.48
2023-01-19T21:53:32.629Z,99727.81
2023-01-19T21:56:10.380Z,99732.91
2023-01-19T21:58:42.684Z,99732.58
2023-01-19T22:01:15.067Z,99732.90
2023-01-19T22:03:44.369Z,99732.64
2023-01-19T22:06:15.897Z,99738.06
2023-01-19T22:08:47.651Z,99739.31
2023-01-19T22:13:50.883Z,99734.54
2023-01-19T22:16:22.603Z,99726.91
2023-01-19T22:18:53.375Z,99726.88
2023-01-19T22:21:23.180Z,99732.30
2023-01-19T22:23:52.965Z,99743.55
2023-01-19T22:26:25.883Z,99741.84
2023-01-19T22:28:56.079Z,99742.34
2023-01-19T22:31:26.862Z,99743.20
2023-01-19T22:34:00.232Z,99747.06
2023-01-19T22:36:34.441Z,99740.73
2023-01-19T22:39:07.636Z,99746.82
2023-01-19T22:41:41.312Z,99752.80
2023-01-19T22:44:35.951Z,99754.24
2023-01-19T22:47:09.500Z,99755.96
2023-01-19T22:49:39.191Z,99760.48
2023-01-19T22:52:11.930Z,99765.56
2023-01-19T22:54:43.499Z,99767.20
2023-01-19T22:57:11.633Z,99766.17
2023-01-19T22:59:44.368Z,99772.21
2023-01-19T23:02:43.338Z,99768.73
2023-01-19T23:05:17.585Z,99775.52
2023-01-19T23:07:50.856Z,99781.77
2023-01-19T23:10:18.263Z,99781.96
2023-01-19T23:12:52.957Z,99782.20
2023-01-19T23:15:25.430Z,99780.05
2023-01-19T23:17:55.795Z,99781.36
2023-01-19T23:20:27.230Z,99791.70
2023-01-19T23:22:56.553Z,99795.30
2023-01-19T23:25:33.494Z,99801.06
2023-01-19T23:28:02.269Z,99804.36
2023-01-19T23:30:34.972Z,99799.52
2023-01-19T23:33:05.143Z,99796.76
2023-01-19T23:35:38.181Z,99805.17
2023-01-19T23:38:10.885Z,99808.44
2023-01-19T23:40:39.949Z,99805.72
2023-01-19T23:43:15.843Z,99812.95
2023-01-19T23:45:48.575Z,99809.55
2023-01-19T23:48:19.347Z,99809.63
2023-01-19T23:50:49.374Z,99807.50
2023-01-19T23:53:17.271Z,99811.96
2023-01-19T23:55:47.231Z,99814.50
2023-01-19T23:58:18.139Z,99816.38
